Aérodrome :
LOGIN :

S'inscrire | Disclaimer

   EN    FR    IT 

 










Légende :    VFR   VFR Marginal   IFR   IFR Intensif   IFR Très Intensif
Visi : 
Plafond : 
>= 8 km
>= 3000ft
5 à 8 km
1000 à 3000 ft
1500m à 5 km
500 à 1000 ft
800 à 1500m
200 à 500 ft
< 800m
< 200 ft
Symboles :   Orages  Brouillard  Fortes neiges  Fortes précipitations  Vent > 20 kt
SIGMETs :   Divers  Orages  Givrage  Turbulence  Onde Orograph.  Cendres Volcan.







- Altitude de l'aérodrome : 158 ft
- Code IATA : QAR


EHDL - Deelen Airbase

DERNIER METAR :
  • 280625Z AUTO 13007KT 070V200 0800 +TSRA SCT004 SCT006 BKN008 SCT015CB 17/16 Q0997 AMB

METARs EXPIRÉS :
  • 280555Z AUTO 11007KT 060V210 9999 SCT030 BKN035 18/16 Q0997 BLU
  • 280525Z AUTO 10007KT 020V190 9000 BR FEW037 BKN056 BKN064 17/16 Q0997 BLU
  • 280455Z AUTO VRB07KT 8000 BR FEW061 SCT070 17/16 Q0997 BLU
  • 280425Z AUTO 10006KT 010V170 7000 BR SCT100 17/16 Q0997 WHT
  • 280355Z AUTO 09006KT 010V150 8000 BR FEW015CB OVC100 17/15 Q0997 BLU

Prévision TAF périmée.
Pas de NOTAMs connus pour ce terrain.



MET'MAP, la Météo Aéronautique d'un coup d'oeil ! - Copyright ORBIFLY Décembre 2007 - Disclaimer

ORBIFLY MET'MAP TEAM :

Programmation & Développement : Alexandra Zaïnal
Conception & Développement : Baudouin d'Aumeries
Co-Programmation & Développement : Marc-Olivier Méhu
Soutien technique & logistique : Manuel Goepfert

Contact : metmap@orbifly.com




SOURCES & CREDITS :

   NOAA